createdAt,value
2019-03-15T00:00:03.499Z,78.25
2019-03-15T00:10:02.891Z,81.51
2019-03-15T00:20:02.658Z,81.42
2019-03-15T00:30:04.015Z,84.44
2019-03-15T00:40:02.770Z,84.36
2019-03-15T00:50:03.444Z,83.99
2019-03-15T01:00:03.506Z,83.25
2019-03-15T01:10:03.056Z,80.75
2019-03-15T01:20:03.246Z,82.29
2019-03-15T01:30:04.037Z,84.40
2019-03-15T01:40:03.390Z,83.43
2019-03-15T01:50:02.923Z,82.97
2019-03-15T02:00:03.256Z,81.49
2019-03-15T02:10:03.395Z,82.08
2019-03-15T02:20:03.362Z,81.72
2019-03-15T02:30:03.729Z,82.24
2019-03-15T02:40:02.476Z,82.21
2019-03-15T02:50:03.436Z,82.58
2019-03-15T03:00:03.716Z,81.05
2019-03-15T03:10:03.365Z,80.44
2019-03-15T03:20:03.701Z,79.82
2019-03-15T03:30:04.503Z,79.77
2019-03-15T03:40:03.712Z,78.81
2019-03-15T03:50:03.020Z,78.75
2019-03-15T04:00:04.358Z,79.05
2019-03-15T04:10:06.298Z,78.40
2019-03-15T04:20:03.604Z,78.62
2019-03-15T04:30:03.378Z,79.28
2019-03-15T04:40:02.892Z,78.78
2019-03-15T04:50:03.011Z,78.68
2019-03-15T05:00:04.060Z,77.51
2019-03-15T05:10:03.636Z,77.25
2019-03-15T05:20:02.686Z,76.65
2019-03-15T05:30:04.163Z,76.29
2019-03-15T05:40:02.854Z,76.44
2019-03-15T05:50:03.546Z,77.01
2019-03-15T06:00:03.830Z,76.41
2019-03-15T06:10:02.737Z,78.15
2019-03-15T06:20:06.132Z,81.53
2019-03-15T06:30:03.482Z,84.55
2019-03-15T06:40:03.614Z,87.02
2019-03-15T06:50:03.687Z,87.41
2019-03-15T07:00:04.441Z,88.74
2019-03-15T07:10:03.546Z,88.96
2019-03-15T07:20:02.866Z,86.96
2019-03-15T07:30:04.005Z,86.00
2019-03-15T07:40:03.512Z,86.39
2019-03-15T07:50:02.865Z,85.83
2019-03-15T08:00:03.422Z,85.33
2019-03-15T08:10:03.700Z,82.37
2019-03-15T08:20:03.038Z,83.25
2019-03-15T08:30:03.529Z,84.79
2019-03-15T08:40:03.509Z,85.69
2019-03-15T08:50:02.793Z,84.87
2019-03-15T09:00:03.624Z,85.80
2019-03-15T09:10:04.282Z,86.39
2019-03-15T09:20:03.311Z,86.00
2019-03-15T09:30:04.157Z,85.99
2019-03-15T09:40:03.480Z,86.10
2019-03-15T09:50:03.301Z,86.36
2019-03-15T10:00:03.598Z,86.49
2019-03-15T10:10:14.641Z,87.19
2019-03-15T10:20:02.900Z,86.46
2019-03-15T10:30:03.150Z,85.95
2019-03-15T10:40:03.246Z,85.90
2019-03-15T10:50:03.204Z,86.54
2019-03-15T11:00:03.160Z,87.06
2019-03-15T11:10:02.921Z,87.83
2019-03-15T11:20:02.916Z,86.67
2019-03-15T11:30:03.823Z,87.58
2019-03-15T11:40:02.733Z,86.88
2019-03-15T11:50:02.787Z,87.58
2019-03-15T12:00:05.690Z,87.81
2019-03-15T12:10:02.707Z,87.51
2019-03-15T12:20:03.481Z,87.48
2019-03-15T12:30:03.998Z,86.73
2019-03-15T12:40:02.789Z,86.54
2019-03-15T12:50:02.582Z,85.40
2019-03-15T13:00:03.715Z,84.28
2019-03-15T13:10:03.385Z,81.72
2019-03-15T13:20:03.100Z,82.58
2019-03-15T13:30:03.544Z,82.12
2019-03-15T13:40:02.963Z,82.65
2019-03-15T13:50:03.289Z,82.40
2019-03-15T14:00:03.943Z,83.85
2019-03-15T14:10:04.629Z,83.71
2019-03-15T14:20:03.401Z,83.57
2019-03-15T14:30:04.252Z,82.34
2019-03-15T14:40:02.731Z,83.57
2019-03-15T14:50:02.831Z,84.42
2019-03-15T15:00:03.635Z,84.64
2019-03-15T15:10:02.805Z,84.93
2019-03-15T15:20:02.733Z,85.66
2019-03-15T15:30:03.101Z,86.73
2019-03-15T15:40:02.969Z,87.07
2019-03-15T15:50:02.965Z,86.72
2019-03-15T16:00:04.195Z,86.48
2019-03-15T16:10:03.499Z,85.58
2019-03-15T16:20:03.661Z,85.50
2019-03-15T16:30:03.823Z,85.89
2019-03-15T16:40:03.570Z,85.02
2019-03-15T16:50:03.510Z,85.82
2019-03-15T17:00:03.004Z,86.88
2019-03-15T17:10:03.149Z,87.60
2019-03-15T17:20:03.676Z,87.23
2019-03-15T17:30:04.296Z,86.98
2019-03-15T17:40:03.873Z,87.01
2019-03-15T17:50:03.311Z,86.96
2019-03-15T18:00:04.059Z,86.46
2019-03-15T18:10:03.661Z,86.15
2019-03-15T18:20:02.866Z,85.21
2019-03-15T18:30:03.854Z,84.81
2019-03-15T18:40:03.366Z,84.78
2019-03-15T18:50:03.620Z,84.58
2019-03-15T19:00:04.100Z,84.68
2019-03-15T19:10:03.698Z,83.42
2019-03-15T19:20:02.835Z,82.23
2019-03-15T19:30:03.686Z,80.96
2019-03-15T19:40:08.182Z,79.12
2019-03-15T19:50:02.999Z,79.37
2019-03-15T20:00:08.979Z,78.04
2019-03-15T20:10:03.648Z,75.94
2019-03-15T20:20:04.039Z,74.63
2019-03-15T20:30:03.689Z,74.72
2019-03-15T20:40:03.424Z,74.91
2019-03-15T20:50:02.629Z,74.79
2019-03-15T21:00:03.381Z,74.79
2019-03-15T21:10:03.300Z,73.95
2019-03-15T21:20:06.750Z,73.90
2019-03-15T21:30:03.819Z,73.39
2019-03-15T21:40:02.790Z,73.44
2019-03-15T21:50:03.843Z,73.75
2019-03-15T22:00:03.375Z,74.45
2019-03-15T22:10:03.984Z,74.77
2019-03-15T22:20:03.311Z,76.21
2019-03-15T22:30:04.150Z,76.37
2019-03-15T22:40:03.094Z,77.65
2019-03-15T22:50:03.278Z,76.82
2019-03-15T23:00:03.631Z,77.17
2019-03-15T23:10:02.616Z,76.70
2019-03-15T23:20:02.949Z,76.58
2019-03-15T23:30:03.920Z,75.98
2019-03-15T23:40:02.960Z,75.48
2019-03-15T23:50:02.924Z,74.88
